createdAt,value
2022-12-26T00:00:20.013Z,14.28
2022-12-26T00:02:46.539Z,14.17
2022-12-26T00:05:12.956Z,13.61
2022-12-26T00:07:39.429Z,14.26
2022-12-26T00:10:06.407Z,14.26
2022-12-26T00:12:32.925Z,14.27
2022-12-26T00:14:59.294Z,14.30
2022-12-26T00:17:25.669Z,14.03
2022-12-26T00:19:52.027Z,14.03
2022-12-26T00:22:18.613Z,14.06
2022-12-26T00:24:44.959Z,14.20
2022-12-26T00:27:11.303Z,13.99
2022-12-26T00:29:37.642Z,13.96
2022-12-26T00:32:04.325Z,14.03
2022-12-26T00:34:30.865Z,13.95
2022-12-26T00:36:57.214Z,14.20
2022-12-26T00:39:23.537Z,13.79
2022-12-26T00:41:49.891Z,14.24
2022-12-26T00:44:16.246Z,14.20
2022-12-26T00:46:42.642Z,14.05
2022-12-26T00:49:09.051Z,13.95
2022-12-26T00:51:38.265Z,14.33
2022-12-26T00:54:04.673Z,14.29
2022-12-26T00:56:31.002Z,14.28
2022-12-26T00:58:57.369Z,14.09
2022-12-26T01:01:24.069Z,14.30
2022-12-26T01:03:51.265Z,13.90
2022-12-26T01:06:18.249Z,14.43
2022-12-26T01:08:44.998Z,14.07
2022-12-26T01:11:13.753Z,14.36
2022-12-26T01:13:40.544Z,14.15
2022-12-26T01:16:07.939Z,14.17
2022-12-26T01:18:34.941Z,14.29
2022-12-26T01:21:04.481Z,13.82
2022-12-26T01:23:30.901Z,14.25
2022-12-26T01:26:16.940Z,14.10
2022-12-26T01:28:43.654Z,14.09
2022-12-26T01:31:10.035Z,14.19
2022-12-26T01:33:36.553Z,13.88
2022-12-26T01:36:04.225Z,14.15
2022-12-26T01:38:30.586Z,14.22
2022-12-26T01:41:15.569Z,14.13
2022-12-26T01:44:00.024Z,14.30
2022-12-26T01:46:35.732Z,13.95
2022-12-26T01:49:08.989Z,14.36
2022-12-26T01:51:40.070Z,14.16
2022-12-26T01:54:37.948Z,13.82
2022-12-26T01:56:56.253Z,14.16
2022-12-26T01:59:26.479Z,14.05
2022-12-26T02:01:54.648Z,14.25
2022-12-26T02:04:48.313Z,13.76
2022-12-26T02:07:14.925Z,13.91
2022-12-26T02:09:41.585Z,14.02
2022-12-26T02:12:36.081Z,13.62
2022-12-26T02:15:03.635Z,13.79
2022-12-26T02:17:30.095Z,14.05
2022-12-26T02:20:01.937Z,14.08
2022-12-26T02:22:47.114Z,13.80
2022-12-26T02:25:58.535Z,13.87
2022-12-26T02:28:53.064Z,14.12
2022-12-26T02:31:32.022Z,13.79
2022-12-26T02:34:15.912Z,13.80
2022-12-26T02:37:18.549Z,13.95
2022-12-26T02:40:04.039Z,13.91
2022-12-26T02:42:47.424Z,13.79
2022-12-26T02:45:46.842Z,14.04
2022-12-26T02:49:02.023Z,13.78
2022-12-26T02:52:19.728Z,13.97
2022-12-26T02:55:12.851Z,13.48
2022-12-26T02:58:09.289Z,13.85
2022-12-26T03:00:58.184Z,13.83
2022-12-26T03:03:48.828Z,13.72
2022-12-26T03:06:48.041Z,13.90
2022-12-26T03:09:37.248Z,14.09
2022-12-26T03:12:26.997Z,13.96
2022-12-26T03:15:04.216Z,13.86
2022-12-26T03:17:40.664Z,13.69
2022-12-26T03:20:17.544Z,13.90
2022-12-26T03:22:57.005Z,13.79
2022-12-26T03:25:59.325Z,13.76
2022-12-26T03:28:26.842Z,13.59
2022-12-26T03:30:55.864Z,13.46
2022-12-26T03:33:40.996Z,13.58
2022-12-26T03:36:11.268Z,13.51
2022-12-26T03:39:13.022Z,13.47
2022-12-26T03:42:17.977Z,13.59
2022-12-26T03:45:05.802Z,13.37
2022-12-26T03:48:18.637Z,13.13
2022-12-26T03:51:09.049Z,13.09
2022-12-26T03:54:06.370Z,13.26
2022-12-26T03:57:01.376Z,13.23
2022-12-26T03:59:52.863Z,13.23
2022-12-26T04:02:39.916Z,13.04
2022-12-26T04:05:27.272Z,13.42
2022-12-26T04:08:19.187Z,13.28
2022-12-26T04:11:11.072Z,13.46
2022-12-26T04:14:12.045Z,13.59
2022-12-26T04:17:03.382Z,13.43
2022-12-26T04:19:32.423Z,13.56
2022-12-26T04:22:27.559Z,13.35
2022-12-26T04:25:50.816Z,13.18
2022-12-26T04:28:38.520Z,13.38
2022-12-26T04:31:33.039Z,13.35
2022-12-26T04:34:28.888Z,13.07
2022-12-26T04:37:21.854Z,13.61
2022-12-26T04:40:10.063Z,13.46
2022-12-26T04:42:57.379Z,13.02
2022-12-26T04:45:25.952Z,13.42
2022-12-26T04:48:11.035Z,13.28
2022-12-26T04:50:52.188Z,13.12
2022-12-26T04:53:19.976Z,13.38
2022-12-26T04:55:46.305Z,13.43
2022-12-26T04:58:12.634Z,13.40
2022-12-26T05:00:39.137Z,13.49
2022-12-26T05:03:24.114Z,13.43
2022-12-26T05:06:10.505Z,13.55
2022-12-26T05:08:59.106Z,13.23
2022-12-26T05:11:26.681Z,13.35
2022-12-26T05:13:55.368Z,13.43
2022-12-26T05:16:41.729Z,13.63
2022-12-26T05:19:29.474Z,13.44
2022-12-26T05:22:14.945Z,13.38
2022-12-26T05:25:00.581Z,13.45
2022-12-26T05:28:00.882Z,13.27
2022-12-26T05:30:27.324Z,13.50
2022-12-26T05:33:12.289Z,13.22
2022-12-26T05:35:39.374Z,13.52
2022-12-26T05:38:06.179Z,13.45
2022-12-26T05:40:32.583Z,13.30
2022-12-26T05:42:58.973Z,13.22
2022-12-26T05:45:25.371Z,13.39
2022-12-26T05:47:58.394Z,13.69
2022-12-26T05:50:24.724Z,13.50
2022-12-26T05:52:51.072Z,13.37
2022-12-26T05:55:18.041Z,13.52
2022-12-26T05:57:44.420Z,13.69
2022-12-26T06:00:11.802Z,13.23
2022-12-26T06:02:38.724Z,13.38
2022-12-26T06:05:05.494Z,13.27
2022-12-26T06:07:31.856Z,13.54
2022-12-26T06:09:58.236Z,13.23
2022-12-26T06:12:24.547Z,13.52
2022-12-26T06:14:50.926Z,13.27
2022-12-26T06:17:17.279Z,13.45
2022-12-26T06:19:46.927Z,13.41
2022-12-26T06:22:13.621Z,13.06
2022-12-26T06:24:40.226Z,13.16
2022-12-26T06:27:06.584Z,12.93
2022-12-26T06:29:32.975Z,12.99
2022-12-26T06:31:59.447Z,13.28
2022-12-26T06:34:27.620Z,13.24
2022-12-26T06:36:55.402Z,12.98
2022-12-26T06:39:22.538Z,12.95
2022-12-26T06:41:48.860Z,13.25
2022-12-26T06:44:18.523Z,13.52
2022-12-26T06:46:45.431Z,12.93
2022-12-26T06:49:11.809Z,13.16
2022-12-26T06:51:38.228Z,13.30
2022-12-26T06:54:04.860Z,13.40
2022-12-26T06:56:32.339Z,13.32
2022-12-26T06:59:01.017Z,13.26
2022-12-26T07:01:29.085Z,13.02
2022-12-26T07:03:56.476Z,13.01
2022-12-26T07:06:31.940Z,13.17
2022-12-26T07:09:05.328Z,13.11
2022-12-26T07:11:36.930Z,13.12
2022-12-26T07:14:04.363Z,13.03
2022-12-26T07:16:31.316Z,12.63
2022-12-26T07:18:58.586Z,12.58
2022-12-26T07:21:26.276Z,13.12
2022-12-26T07:23:53.850Z,12.72
2022-12-26T07:26:20.616Z,12.72
2022-12-26T07:28:46.997Z,12.87
2022-12-26T07:31:18.485Z,12.57
2022-12-26T07:33:52.612Z,12.86
2022-12-26T07:36:19.632Z,13.03
2022-12-26T07:38:46.901Z,12.52
2022-12-26T07:41:32.014Z,13.04
2022-12-26T07:43:58.429Z,12.92
2022-12-26T07:46:24.769Z,12.61
2022-12-26T07:48:51.179Z,13.05
2022-12-26T07:51:17.552Z,12.73
2022-12-26T07:53:43.903Z,12.99
2022-12-26T07:56:10.249Z,12.96
2022-12-26T07:58:36.818Z,12.97
2022-12-26T08:01:04.961Z,13.12
2022-12-26T08:03:31.566Z,13.02
2022-12-26T08:05:58.412Z,12.87
2022-12-26T08:08:24.739Z,12.64
2022-12-26T08:11:06.228Z,13.04
2022-12-26T08:13:33.946Z,12.91
2022-12-26T08:16:05.536Z,12.97
2022-12-26T08:18:31.972Z,12.83
2022-12-26T08:20:58.607Z,12.74
2022-12-26T08:23:25.061Z,12.83
2022-12-26T08:25:51.463Z,12.80
2022-12-26T08:28:18.043Z,13.03
2022-12-26T08:30:45.437Z,13.04
2022-12-26T08:33:12.816Z,13.06
2022-12-26T08:35:40.359Z,12.96
2022-12-26T08:38:08.042Z,13.16
2022-12-26T08:40:43.041Z,12.83
2022-12-26T08:46:03.148Z,13.21
2022-12-26T08:48:30.281Z,12.95
2022-12-26T08:51:02.313Z,13.24
2022-12-26T08:53:30.517Z,13.21
2022-12-26T08:55:57.594Z,13.00
2022-12-26T08:58:24.066Z,13.22
2022-12-26T09:00:55.265Z,13.02
2022-12-26T09:03:22.375Z,13.00
2022-12-26T09:05:49.193Z,13.10
2022-12-26T09:08:15.573Z,12.84
2022-12-26T09:10:41.998Z,12.74
2022-12-26T09:13:08.436Z,12.77
2022-12-26T09:15:34.873Z,12.87
2022-12-26T09:18:01.290Z,12.73
2022-12-26T09:20:27.690Z,12.80
2022-12-26T09:22:55.341Z,12.95
2022-12-26T09:25:25.041Z,13.13
2022-12-26T09:27:58.807Z,13.12
2022-12-26T09:30:25.606Z,12.92
2022-12-26T09:32:53.042Z,13.07
2022-12-26T09:35:19.587Z,12.65
2022-12-26T09:37:45.971Z,12.95
2022-12-26T09:40:25.493Z,13.15
2022-12-26T09:43:53.577Z,12.97
2022-12-26T09:46:40.827Z,12.67
2022-12-26T09:49:20.225Z,13.21
2022-12-26T09:51:52.582Z,13.28
2022-12-26T09:54:33.632Z,13.21
2022-12-26T09:57:05.280Z,13.00
2022-12-26T09:59:57.501Z,13.33
2022-12-26T10:02:26.059Z,13.41
2022-12-26T10:04:54.739Z,13.32
2022-12-26T10:07:24.053Z,13.38
2022-12-26T10:09:59.493Z,13.37
2022-12-26T10:12:51.939Z,13.28
2022-12-26T10:15:36.825Z,13.39
2022-12-26T10:18:18.048Z,13.32
2022-12-26T10:20:59.299Z,13.28
2022-12-26T10:23:39.737Z,13.36
2022-12-26T10:26:13.463Z,13.17
2022-12-26T10:28:59.845Z,13.65
2022-12-26T10:31:50.612Z,13.65
2022-12-26T10:34:36.719Z,13.60
2022-12-26T10:37:42.029Z,13.52
2022-12-26T10:40:17.318Z,13.70
2022-12-26T10:42:47.500Z,13.30
2022-12-26T10:45:24.328Z,13.27
2022-12-26T10:47:51.770Z,13.44
2022-12-26T10:50:28.099Z,13.42
2022-12-26T10:52:55.841Z,13.90
2022-12-26T10:55:31.814Z,13.91
2022-12-26T10:58:06.926Z,13.31
2022-12-26T11:00:34.410Z,13.69
2022-12-26T11:03:15.632Z,13.83
2022-12-26T11:06:10.363Z,13.91
2022-12-26T11:08:46.102Z,14.03
2022-12-26T11:11:45.447Z,13.95
2022-12-26T11:14:34.171Z,14.27
2022-12-26T11:17:04.946Z,13.51
2022-12-26T11:19:38.140Z,13.67
2022-12-26T11:22:27.783Z,13.78
2022-12-26T11:25:09.551Z,14.26
2022-12-26T11:27:39.919Z,14.06
2022-12-26T11:30:27.784Z,13.86
2022-12-26T11:33:14.255Z,13.70
2022-12-26T11:35:52.516Z,13.41
2022-12-26T11:38:42.505Z,13.61
2022-12-26T11:41:32.267Z,13.28
2022-12-26T11:44:22.496Z,13.21
2022-12-26T11:47:07.864Z,13.44
2022-12-26T11:50:01.535Z,13.28
2022-12-26T11:52:57.771Z,13.44
2022-12-26T11:55:24.123Z,13.47
2022-12-26T11:57:59.063Z,13.68
2022-12-26T12:00:26.216Z,13.56
2022-12-26T12:02:52.692Z,13.33
2022-12-26T12:05:35.350Z,12.96
2022-12-26T12:08:15.679Z,13.05
2022-12-26T12:10:51.033Z,12.69
2022-12-26T12:13:38.897Z,12.42
2022-12-26T12:16:08.239Z,12.27
2022-12-26T12:18:46.830Z,12.18
2022-12-26T12:21:31.739Z,11.98
2022-12-26T12:24:26.413Z,12.20
2022-12-26T12:27:09.473Z,11.94
2022-12-26T12:30:17.189Z,12.11
2022-12-26T12:32:57.299Z,12.13
2022-12-26T12:36:13.012Z,12.07
2022-12-26T12:38:57.692Z,12.01
2022-12-26T12:41:23.953Z,12.39
2022-12-26T12:44:07.229Z,11.84
2022-12-26T12:47:19.287Z,12.33
2022-12-26T12:49:48.538Z,12.37
2022-12-26T12:52:34.612Z,12.41
2022-12-26T12:55:27.796Z,12.01
2022-12-26T12:58:12.908Z,11.70
2022-12-26T13:00:48.861Z,11.52
2022-12-26T13:03:44.293Z,11.77
2022-12-26T13:06:16.697Z,11.73
2022-12-26T13:08:48.313Z,11.11
2022-12-26T13:11:19.937Z,11.70
2022-12-26T13:13:53.802Z,11.71
2022-12-26T13:16:25.602Z,11.75
2022-12-26T13:19:05.539Z,12.05
2022-12-26T13:21:35.987Z,11.92
2022-12-26T13:24:24.581Z,11.64
2022-12-26T13:27:03.213Z,11.71
2022-12-26T13:29:45.546Z,12.08
2022-12-26T13:32:23.001Z,12.07
2022-12-26T13:34:51.616Z,11.37
2022-12-26T13:37:39.885Z,12.01
2022-12-26T13:40:16.746Z,11.66
2022-12-26T13:43:10.835Z,11.79
2022-12-26T13:45:37.273Z,12.25
2022-12-26T13:48:15.912Z,12.23
2022-12-26T13:50:56.613Z,12.08
2022-12-26T13:53:25.986Z,11.89
2022-12-26T13:56:04.675Z,11.83
2022-12-26T13:58:54.209Z,12.07
2022-12-26T14:01:32.594Z,12.04
2022-12-26T14:04:14.279Z,11.96
2022-12-26T14:06:53.073Z,11.53
2022-12-26T14:09:32.702Z,11.38
2022-12-26T14:12:23.492Z,11.37
2022-12-26T14:15:01.637Z,11.52
2022-12-26T14:17:48.985Z,11.26
2022-12-26T14:20:39.436Z,11.11
2022-12-26T14:23:20.090Z,10.90
2022-12-26T14:26:02.713Z,11.14
2022-12-26T14:29:01.849Z,11.06
2022-12-26T14:31:40.306Z,11.23
2022-12-26T14:34:55.615Z,11.24
2022-12-26T14:37:35.656Z,10.81
2022-12-26T14:40:26.956Z,10.91
2022-12-26T14:43:11.957Z,11.08
2022-12-26T14:45:41.733Z,11.01
2022-12-26T14:48:17.009Z,11.17
2022-12-26T14:50:51.820Z,11.40
2022-12-26T14:53:24.336Z,11.13
2022-12-26T14:55:53.638Z,10.92
2022-12-26T14:58:26.282Z,11.03
2022-12-26T15:00:53.716Z,10.92
2022-12-26T15:03:36.864Z,9.94
2022-12-26T15:06:18.609Z,10.67
2022-12-26T15:09:04.047Z,10.63
2022-12-26T15:12:06.436Z,10.31
2022-12-26T15:14:54.107Z,10.70
2022-12-26T15:17:26.413Z,10.81
2022-12-26T15:20:25.568Z,10.54
2022-12-26T15:23:07.175Z,10.77
2022-12-26T15:25:59.064Z,11.06
2022-12-26T15:28:43.716Z,11.00
2022-12-26T15:31:15.986Z,10.55
2022-12-26T15:33:53.086Z,10.54
2022-12-26T15:36:57.689Z,10.49
2022-12-26T15:39:43.591Z,9.90
2022-12-26T15:42:48.001Z,10.49
2022-12-26T15:45:42.389Z,9.85
2022-12-26T15:48:31.936Z,10.37
2022-12-26T15:51:09.548Z,9.92
2022-12-26T15:53:54.276Z,10.12
2022-12-26T15:56:39.008Z,9.98
2022-12-26T15:59:30.481Z,9.53
2022-12-26T16:01:58.339Z,9.91
2022-12-26T16:04:37.056Z,9.81
2022-12-26T16:07:08.993Z,9.94
2022-12-26T16:09:43.160Z,9.83
2022-12-26T16:12:24.166Z,9.66
2022-12-26T16:15:00.703Z,9.49
2022-12-26T16:17:27.994Z,9.50
2022-12-26T16:19:54.601Z,9.14
2022-12-26T16:22:44.529Z,9.48
2022-12-26T16:25:16.723Z,9.45
2022-12-26T16:27:45.677Z,9.36
2022-12-26T16:30:16.400Z,9.48
2022-12-26T16:32:46.299Z,9.42
2022-12-26T16:35:26.031Z,9.03
2022-12-26T16:37:55.107Z,9.42
2022-12-26T16:40:31.374Z,8.77
2022-12-26T16:43:25.957Z,8.87
2022-12-26T16:45:55.281Z,9.24
2022-12-26T16:48:24.141Z,9.17
2022-12-26T16:50:55.614Z,8.54
2022-12-26T16:53:42.454Z,8.41
2022-12-26T16:56:27.758Z,8.46
2022-12-26T16:59:17.354Z,8.71
2022-12-26T17:01:50.311Z,8.81
2022-12-26T17:04:25.227Z,8.33
2022-12-26T17:06:55.971Z,8.56
2022-12-26T17:09:24.360Z,8.81
2022-12-26T17:11:53.521Z,8.46
2022-12-26T17:14:25.221Z,8.64
2022-12-26T17:17:01.087Z,8.49
2022-12-26T17:19:31.521Z,8.74
2022-12-26T17:22:22.791Z,8.38
2022-12-26T17:24:51.383Z,8.60
2022-12-26T17:27:23.304Z,8.74
2022-12-26T17:30:01.305Z,8.70
2022-12-26T17:32:37.098Z,8.65
2022-12-26T17:35:16.635Z,8.85
2022-12-26T17:37:44.110Z,8.78
2022-12-26T17:40:13.497Z,8.87
2022-12-26T17:42:48.893Z,8.60
2022-12-26T17:45:27.470Z,8.76
2022-12-26T17:47:55.278Z,7.93
2022-12-26T17:50:23.965Z,8.59
2022-12-26T17:52:51.027Z,8.01
2022-12-26T17:55:26.726Z,8.39
2022-12-26T17:57:53.695Z,8.16
2022-12-26T18:00:22.971Z,8.54
2022-12-26T18:02:49.866Z,8.47
2022-12-26T18:05:17.356Z,7.76
2022-12-26T18:07:45.685Z,8.18
2022-12-26T18:10:21.750Z,8.55
2022-12-26T18:12:48.690Z,8.51
2022-12-26T18:15:15.651Z,7.83
2022-12-26T18:17:42.469Z,7.77
2022-12-26T18:20:15.919Z,7.88
2022-12-26T18:22:42.281Z,7.73
2022-12-26T18:25:11.986Z,8.48
2022-12-26T18:27:38.635Z,7.72
2022-12-26T18:30:05.495Z,8.09
2022-12-26T18:32:33.604Z,8.33
2022-12-26T18:35:00.126Z,8.04
2022-12-26T18:37:29.258Z,7.93
2022-12-26T18:39:55.635Z,7.87
2022-12-26T18:42:22.074Z,7.81
2022-12-26T18:44:48.565Z,7.62
2022-12-26T18:47:20.015Z,7.79
2022-12-26T18:49:47.194Z,7.63
2022-12-26T18:52:17.504Z,7.72
2022-12-26T18:54:44.655Z,7.73
2022-12-26T18:57:17.593Z,7.26
2022-12-26T18:59:44.136Z,7.43
2022-12-26T19:02:16.751Z,7.91
2022-12-26T19:04:43.229Z,7.29
2022-12-26T19:07:11.234Z,7.55
2022-12-26T19:09:37.663Z,7.35
2022-12-26T19:12:04.370Z,7.23
2022-12-26T19:14:30.796Z,7.16
2022-12-26T19:16:57.140Z,7.11
2022-12-26T19:19:26.536Z,6.94
2022-12-26T19:21:52.894Z,7.35
2022-12-26T19:24:19.246Z,7.26
2022-12-26T19:26:45.712Z,7.40
2022-12-26T19:29:12.121Z,7.46
2022-12-26T19:31:38.604Z,7.70
2022-12-26T19:34:05.296Z,7.85
2022-12-26T19:36:31.678Z,7.62
2022-12-26T19:38:58.396Z,7.93
2022-12-26T19:41:24.769Z,7.32
2022-12-26T19:43:56.375Z,7.30
2022-12-26T19:46:23.365Z,7.87
2022-12-26T19:48:49.781Z,7.74
2022-12-26T19:51:17.168Z,7.70
2022-12-26T19:53:44.697Z,7.81
2022-12-26T19:56:23.724Z,7.97
2022-12-26T19:58:56.165Z,7.18
2022-12-26T20:01:25.922Z,7.31
2022-12-26T20:03:57.663Z,7.88
2022-12-26T20:06:26.433Z,7.93
2022-12-26T20:08:55.788Z,7.53
2022-12-26T20:11:24.723Z,7.70
2022-12-26T20:13:51.579Z,7.65
2022-12-26T20:16:54.477Z,7.30
2022-12-26T20:19:07.074Z,7.36
2022-12-26T20:21:33.887Z,7.30
2022-12-26T20:24:01.175Z,7.67
2022-12-26T20:26:28.971Z,7.28
2022-12-26T20:28:57.831Z,7.18
2022-12-26T20:31:24.213Z,7.12
2022-12-26T20:33:52.057Z,6.88
2022-12-26T20:36:21.236Z,7.48
2022-12-26T20:38:50.594Z,7.88
2022-12-26T20:41:17.553Z,7.61
2022-12-26T20:43:44.061Z,7.29
2022-12-26T20:46:14.399Z,7.88
2022-12-26T20:48:41.429Z,7.37
2022-12-26T20:51:10.279Z,7.61
2022-12-26T20:53:37.111Z,7.57
2022-12-26T20:56:04.463Z,7.86
2022-12-26T20:58:35.593Z,7.95
2022-12-26T21:01:08.001Z,8.03
2022-12-26T21:03:35.707Z,7.95
2022-12-26T21:06:05.950Z,7.57
2022-12-26T21:08:32.620Z,7.36
2022-12-26T21:11:10.980Z,7.19
2022-12-26T21:13:38.308Z,8.33
2022-12-26T21:16:10.061Z,8.12
2022-12-26T21:18:37.057Z,7.94
2022-12-26T21:21:17.183Z,7.62
2022-12-26T21:23:44.422Z,7.39
2022-12-26T21:26:18.609Z,7.79
2022-12-26T21:28:44.886Z,7.99
2022-12-26T21:31:12.006Z,7.81
2022-12-26T21:33:44.313Z,7.21
2022-12-26T21:36:13.365Z,7.31
2022-12-26T21:38:40.673Z,8.02
2022-12-26T21:41:11.368Z,7.98
2022-12-26T21:43:38.122Z,7.51
2022-12-26T21:46:11.095Z,7.35
2022-12-26T21:48:37.510Z,7.90
2022-12-26T21:51:08.535Z,7.45
2022-12-26T21:53:35.439Z,7.62
2022-12-26T21:56:06.555Z,7.58
2022-12-26T21:58:52.999Z,7.44
2022-12-26T22:01:21.418Z,7.59
2022-12-26T22:04:06.600Z,7.23
2022-12-26T22:06:33.069Z,7.44
2022-12-26T22:08:59.994Z,7.82
2022-12-26T22:11:45.510Z,7.64
2022-12-26T22:14:12.611Z,7.55
2022-12-26T22:16:39.510Z,7.69
2022-12-26T22:19:06.613Z,7.61
2022-12-26T22:21:33.218Z,7.11
2022-12-26T22:23:59.887Z,7.63
2022-12-26T22:26:28.051Z,7.62
2022-12-26T22:28:55.928Z,7.66
2022-12-26T22:31:32.189Z,7.33
2022-12-26T22:34:26.199Z,7.47
2022-12-26T22:36:55.744Z,7.61
2022-12-26T22:39:22.192Z,7.51
2022-12-26T22:41:48.534Z,7.32
2022-12-26T22:44:15.339Z,7.36
2022-12-26T22:46:42.123Z,7.39
2022-12-26T22:49:09.050Z,7.36
2022-12-26T22:51:36.812Z,7.68
2022-12-26T22:54:03.193Z,7.07
2022-12-26T22:56:29.982Z,7.55
2022-12-26T22:59:00.515Z,7.64
2022-12-26T23:01:27.127Z,7.33
2022-12-26T23:03:53.630Z,7.40
2022-12-26T23:06:31.552Z,7.94
2022-12-26T23:09:01.154Z,7.77
2022-12-26T23:11:34.679Z,7.57
2022-12-26T23:14:02.598Z,7.77
2022-12-26T23:16:51.555Z,7.68
2022-12-26T23:20:01.518Z,7.65
2022-12-26T23:22:28.614Z,7.38
2022-12-26T23:24:54.948Z,7.39
2022-12-26T23:27:40.060Z,7.43
2022-12-26T23:30:19.365Z,7.36
2022-12-26T23:32:54.743Z,7.17
2022-12-26T23:35:22.412Z,6.96
2022-12-26T23:37:49.221Z,7.35
2022-12-26T23:40:16.929Z,7.24
2022-12-26T23:42:43.533Z,7.31
2022-12-26T23:45:11.679Z,7.40
2022-12-26T23:47:39.528Z,7.32
2022-12-26T23:50:07.110Z,6.78
2022-12-26T23:52:34.032Z,7.36
2022-12-26T23:55:00.397Z,7.02
2022-12-26T23:57:26.732Z,7.18
2022-12-26T23:59:53.253Z,7.23
